sensor_id;sensor_type;location;lat;lon;timestamp;P1;durP1;ratioP1;P2;durP2;ratioP2
24547;SDS011;12713;51.624;4.924;2024-01-30T00:00:44;19.42;;;14.07;;
24547;SDS011;12713;51.624;4.924;2024-01-30T00:03:11;18.70;;;13.70;;
24547;SDS011;12713;51.624;4.924;2024-01-30T00:05:37;19.90;;;13.18;;
24547;SDS011;12713;51.624;4.924;2024-01-30T00:08:14;22.48;;;13.73;;
24547;SDS011;12713;51.624;4.924;2024-01-30T00:10:40;22.88;;;13.43;;
24547;SDS011;12713;51.624;4.924;2024-01-30T00:13:06;18.20;;;13.52;;
24547;SDS011;12713;51.624;4.924;2024-01-30T00:15:32;17.33;;;12.32;;
24547;SDS011;12713;51.624;4.924;2024-01-30T00:18:12;17.52;;;12.70;;
24547;SDS011;12713;51.624;4.924;2024-01-30T00:24:02;17.52;;;12.45;;
24547;SDS011;12713;51.624;4.924;2024-01-30T00:26:28;19.45;;;12.55;;
24547;SDS011;12713;51.624;4.924;2024-01-30T00:28:58;16.08;;;11.68;;
24547;SDS011;12713;51.624;4.924;2024-01-30T00:31:24;21.27;;;12.15;;
24547;SDS011;12713;51.624;4.924;2024-01-30T00:33:57;19.00;;;12.82;;
24547;SDS011;12713;51.624;4.924;2024-01-30T00:36:24;18.10;;;12.07;;
24547;SDS011;12713;51.624;4.924;2024-01-30T00:38:50;22.20;;;12.60;;
24547;SDS011;12713;51.624;4.924;2024-01-30T00:41:18;23.10;;;12.73;;
24547;SDS011;12713;51.624;4.924;2024-01-30T00:43:48;19.80;;;12.68;;
24547;SDS011;12713;51.624;4.924;2024-01-30T00:46:18;20.98;;;14.25;;
24547;SDS011;12713;51.624;4.924;2024-01-30T00:48:50;18.45;;;13.15;;
24547;SDS011;12713;51.624;4.924;2024-01-30T00:51:28;21.48;;;13.23;;
24547;SDS011;12713;51.624;4.924;2024-01-30T00:53:54;19.23;;;11.77;;
24547;SDS011;12713;51.624;4.924;2024-01-30T01:01:53;17.67;;;13.02;;
24547;SDS011;12713;51.624;4.924;2024-01-30T01:04:22;20.65;;;13.00;;
24547;SDS011;12713;51.624;4.924;2024-01-30T01:06:50;20.55;;;13.02;;
24547;SDS011;12713;51.624;4.924;2024-01-30T01:12:23;25.55;;;15.38;;
24547;SDS011;12713;51.624;4.924;2024-01-30T01:14:49;22.10;;;15.45;;
24547;SDS011;12713;51.624;4.924;2024-01-30T01:17:18;21.75;;;15.63;;
24547;SDS011;12713;51.624;4.924;2024-01-30T01:19:47;22.33;;;16.52;;
24547;SDS011;12713;51.624;4.924;2024-01-30T01:22:13;21.80;;;15.48;;
24547;SDS011;12713;51.624;4.924;2024-01-30T01:24:39;20.10;;;15.00;;
24547;SDS011;12713;51.624;4.924;2024-01-30T01:30:14;20.70;;;14.57;;
24547;SDS011;12713;51.624;4.924;2024-01-30T01:32:46;22.52;;;13.88;;
24547;SDS011;12713;51.624;4.924;2024-01-30T01:35:19;23.10;;;14.55;;
24547;SDS011;12713;51.624;4.924;2024-01-30T01:37:45;22.65;;;14.63;;
24547;SDS011;12713;51.624;4.924;2024-01-30T01:40:32;22.42;;;14.48;;
24547;SDS011;12713;51.624;4.924;2024-01-30T01:43:02;17.60;;;13.18;;
24547;SDS011;12713;51.624;4.924;2024-01-30T01:45:35;22.85;;;15.13;;
24547;SDS011;12713;51.624;4.924;2024-01-30T01:48:01;19.38;;;13.80;;
24547;SDS011;12713;51.624;4.924;2024-01-30T01:50:34;23.52;;;14.15;;
24547;SDS011;12713;51.624;4.924;2024-01-30T01:56:23;22.20;;;14.35;;
24547;SDS011;12713;51.624;4.924;2024-01-30T01:58:54;21.23;;;15.10;;
24547;SDS011;12713;51.624;4.924;2024-01-30T02:01:23;20.70;;;14.50;;
24547;SDS011;12713;51.624;4.924;2024-01-30T02:03:49;21.92;;;14.82;;
24547;SDS011;12713;51.624;4.924;2024-01-30T02:06:24;20.73;;;14.60;;
24547;SDS011;12713;51.624;4.924;2024-01-30T02:08:50;22.15;;;14.50;;
24547;SDS011;12713;51.624;4.924;2024-01-30T02:11:20;20.98;;;14.65;;
24547;SDS011;12713;51.624;4.924;2024-01-30T02:13:46;21.67;;;15.05;;
24547;SDS011;12713;51.624;4.924;2024-01-30T02:16:12;21.17;;;15.23;;
24547;SDS011;12713;51.624;4.924;2024-01-30T02:18:38;20.67;;;14.75;;
24547;SDS011;12713;51.624;4.924;2024-01-30T02:21:08;20.65;;;13.73;;
24547;SDS011;12713;51.624;4.924;2024-01-30T02:23:34;21.42;;;12.93;;
24547;SDS011;12713;51.624;4.924;2024-01-30T02:26:00;18.42;;;12.48;;
24547;SDS011;12713;51.624;4.924;2024-01-30T02:28:26;19.27;;;13.40;;
24547;SDS011;12713;51.624;4.924;2024-01-30T02:30:55;17.92;;;13.07;;
24547;SDS011;12713;51.624;4.924;2024-01-30T02:33:25;22.55;;;13.18;;
24547;SDS011;12713;51.624;4.924;2024-01-30T02:35:56;18.92;;;12.57;;
24547;SDS011;12713;51.624;4.924;2024-01-30T02:38:22;17.40;;;11.75;;
24547;SDS011;12713;51.624;4.924;2024-01-30T02:40:48;21.73;;;14.20;;
24547;SDS011;12713;51.624;4.924;2024-01-30T02:43:17;24.15;;;14.90;;
24547;SDS011;12713;51.624;4.924;2024-01-30T02:45:43;20.40;;;15.10;;
24547;SDS011;12713;51.624;4.924;2024-01-30T02:48:17;20.15;;;14.82;;
24547;SDS011;12713;51.624;4.924;2024-01-30T02:50:43;22.08;;;15.13;;
24547;SDS011;12713;51.624;4.924;2024-01-30T02:53:09;19.92;;;14.20;;
24547;SDS011;12713;51.624;4.924;2024-01-30T02:55:47;20.80;;;14.82;;
24547;SDS011;12713;51.624;4.924;2024-01-30T02:58:13;22.88;;;15.38;;
24547;SDS011;12713;51.624;4.924;2024-01-30T03:03:44;22.25;;;14.88;;
24547;SDS011;12713;51.624;4.924;2024-01-30T03:06:12;21.23;;;15.15;;
24547;SDS011;12713;51.624;4.924;2024-01-30T03:08:42;20.15;;;15.45;;
24547;SDS011;12713;51.624;4.924;2024-01-30T03:11:19;20.48;;;15.63;;
24547;SDS011;12713;51.624;4.924;2024-01-30T03:13:56;20.58;;;14.63;;
24547;SDS011;12713;51.624;4.924;2024-01-30T03:16:25;18.35;;;14.07;;
24547;SDS011;12713;51.624;4.924;2024-01-30T03:19:03;21.00;;;15.07;;
24547;SDS011;12713;51.624;4.924;2024-01-30T03:21:35;22.58;;;15.70;;
24547;SDS011;12713;51.624;4.924;2024-01-30T03:33:36;23.52;;;15.70;;
24547;SDS011;12713;51.624;4.924;2024-01-30T03:36:07;22.63;;;15.88;;
24547;SDS011;12713;51.624;4.924;2024-01-30T03:38:33;20.98;;;14.65;;
24547;SDS011;12713;51.624;4.924;2024-01-30T03:41:00;22.77;;;15.05;;
24547;SDS011;12713;51.624;4.924;2024-01-30T03:43:26;20.10;;;14.32;;
24547;SDS011;12713;51.624;4.924;2024-01-30T03:46:01;19.67;;;13.88;;
24547;SDS011;12713;51.624;4.924;2024-01-30T03:48:28;20.15;;;15.00;;
24547;SDS011;12713;51.624;4.924;2024-01-30T03:51:01;23.40;;;14.43;;
24547;SDS011;12713;51.624;4.924;2024-01-30T03:53:33;18.00;;;12.57;;
24547;SDS011;12713;51.624;4.924;2024-01-30T03:56:03;18.58;;;12.77;;
24547;SDS011;12713;51.624;4.924;2024-01-30T03:58:29;21.25;;;11.77;;
24547;SDS011;12713;51.624;4.924;2024-01-30T04:00:55;17.88;;;12.32;;
24547;SDS011;12713;51.624;4.924;2024-01-30T04:03:35;18.30;;;12.15;;
24547;SDS011;12713;51.624;4.924;2024-01-30T04:06:09;17.42;;;12.40;;
24547;SDS011;12713;51.624;4.924;2024-01-30T04:08:44;20.80;;;13.40;;
24547;SDS011;12713;51.624;4.924;2024-01-30T04:11:31;23.55;;;14.02;;
24547;SDS011;12713;51.624;4.924;2024-01-30T04:14:08;20.15;;;12.48;;
24547;SDS011;12713;51.624;4.924;2024-01-30T04:16:34;19.25;;;12.93;;
24547;SDS011;12713;51.624;4.924;2024-01-30T04:19:01;21.70;;;13.52;;
24547;SDS011;12713;51.624;4.924;2024-01-30T04:21:29;27.52;;;15.43;;
24547;SDS011;12713;51.624;4.924;2024-01-30T04:27:00;25.40;;;14.23;;
24547;SDS011;12713;51.624;4.924;2024-01-30T04:29:27;28.70;;;15.90;;
24547;SDS011;12713;51.624;4.924;2024-01-30T04:32:00;29.15;;;16.23;;
24547;SDS011;12713;51.624;4.924;2024-01-30T04:34:29;35.90;;;19.38;;
24547;SDS011;12713;51.624;4.924;2024-01-30T04:36:58;33.40;;;17.77;;
24547;SDS011;12713;51.624;4.924;2024-01-30T04:39:24;30.10;;;15.50;;
24547;SDS011;12713;51.624;4.924;2024-01-30T04:41:51;28.80;;;15.35;;
24547;SDS011;12713;51.624;4.924;2024-01-30T04:44:20;18.33;;;10.65;;
24547;SDS011;12713;51.624;4.924;2024-01-30T04:46:49;16.30;;;10.40;;
24547;SDS011;12713;51.624;4.924;2024-01-30T04:52:39;19.67;;;12.15;;
24547;SDS011;12713;51.624;4.924;2024-01-30T04:55:10;19.83;;;11.60;;
24547;SDS011;12713;51.624;4.924;2024-01-30T04:57:37;19.95;;;12.00;;
24547;SDS011;12713;51.624;4.924;2024-01-30T05:00:06;15.75;;;12.02;;
24547;SDS011;12713;51.624;4.924;2024-01-30T05:02:34;19.05;;;10.80;;
24547;SDS011;12713;51.624;4.924;2024-01-30T05:05:04;15.60;;;10.80;;
24547;SDS011;12713;51.624;4.924;2024-01-30T05:07:33;16.63;;;11.10;;
24547;SDS011;12713;51.624;4.924;2024-01-30T05:09:59;20.33;;;11.88;;
24547;SDS011;12713;51.624;4.924;2024-01-30T05:12:26;14.80;;;10.30;;
24547;SDS011;12713;51.624;4.924;2024-01-30T05:14:53;17.30;;;11.45;;
24547;SDS011;12713;51.624;4.924;2024-01-30T05:17:19;15.77;;;11.48;;
24547;SDS011;12713;51.624;4.924;2024-01-30T05:19:45;15.20;;;11.80;;
24547;SDS011;12713;51.624;4.924;2024-01-30T05:22:15;21.20;;;12.20;;
24547;SDS011;12713;51.624;4.924;2024-01-30T05:24:43;18.90;;;11.77;;
24547;SDS011;12713;51.624;4.924;2024-01-30T05:27:09;15.57;;;11.10;;
24547;SDS011;12713;51.624;4.924;2024-01-30T05:29:39;15.65;;;11.60;;
24547;SDS011;12713;51.624;4.924;2024-01-30T05:32:06;21.10;;;13.00;;
24547;SDS011;12713;51.624;4.924;2024-01-30T05:34:35;19.30;;;11.63;;
24547;SDS011;12713;51.624;4.924;2024-01-30T05:37:30;22.60;;;13.35;;
24547;SDS011;12713;51.624;4.924;2024-01-30T05:39:56;31.70;;;16.35;;
24547;SDS011;12713;51.624;4.924;2024-01-30T05:42:49;26.52;;;13.77;;
24547;SDS011;12713;51.624;4.924;2024-01-30T05:48:42;17.02;;;11.25;;
24547;SDS011;12713;51.624;4.924;2024-01-30T05:51:16;15.40;;;10.02;;
24547;SDS011;12713;51.624;4.924;2024-01-30T05:53:50;14.27;;;10.25;;
24547;SDS011;12713;51.624;4.924;2024-01-30T05:56:20;15.55;;;10.40;;
24547;SDS011;12713;51.624;4.924;2024-01-30T05:58:51;16.33;;;10.05;;
24547;SDS011;12713;51.624;4.924;2024-01-30T06:04:44;16.33;;;10.13;;
24547;SDS011;12713;51.624;4.924;2024-01-30T06:07:10;13.18;;;9.43;;
24547;SDS011;12713;51.624;4.924;2024-01-30T06:15:47;16.92;;;9.60;;
24547;SDS011;12713;51.624;4.924;2024-01-30T06:18:13;13.95;;;8.70;;
24547;SDS011;12713;51.624;4.924;2024-01-30T06:20:46;12.65;;;9.30;;
24547;SDS011;12713;51.624;4.924;2024-01-30T06:23:15;12.85;;;8.68;;
24547;SDS011;12713;51.624;4.924;2024-01-30T06:25:41;18.38;;;9.93;;
24547;SDS011;12713;51.624;4.924;2024-01-30T06:28:36;14.45;;;8.55;;
24547;SDS011;12713;51.624;4.924;2024-01-30T06:37:25;15.93;;;9.05;;
24547;SDS011;12713;51.624;4.924;2024-01-30T06:40:03;12.07;;;9.15;;
24547;SDS011;12713;51.624;4.924;2024-01-30T06:48:57;12.80;;;8.40;;
24547;SDS011;12713;51.624;4.924;2024-01-30T06:55:07;16.40;;;9.13;;
24547;SDS011;12713;51.624;4.924;2024-01-30T07:07:04;14.40;;;9.40;;
24547;SDS011;12713;51.624;4.924;2024-01-30T07:38:49;18.20;;;9.55;;
24547;SDS011;12713;51.624;4.924;2024-01-30T07:47:55;18.25;;;9.70;;
24547;SDS011;12713;51.624;4.924;2024-01-30T07:50:42;15.60;;;9.52;;
24547;SDS011;12713;51.624;4.924;2024-01-30T08:05:21;17.65;;;9.90;;
24547;SDS011;12713;51.624;4.924;2024-01-30T08:13:41;19.55;;;11.73;;
24547;SDS011;12713;51.624;4.924;2024-01-30T08:16:13;14.55;;;9.65;;
24547;SDS011;12713;51.624;4.924;2024-01-30T08:40:47;19.00;;;9.13;;
24547;SDS011;12713;51.624;4.924;2024-01-30T08:43:57;19.92;;;9.10;;
24547;SDS011;12713;51.624;4.924;2024-01-30T08:53:06;19.00;;;8.90;;
24547;SDS011;12713;51.624;4.924;2024-01-30T08:58:57;16.00;;;9.07;;
24547;SDS011;12713;51.624;4.924;2024-01-30T09:04:35;15.90;;;8.70;;
24547;SDS011;12713;51.624;4.924;2024-01-30T09:10:31;19.27;;;9.70;;
24547;SDS011;12713;51.624;4.924;2024-01-30T09:13:11;22.45;;;9.57;;
24547;SDS011;12713;51.624;4.924;2024-01-30T09:15:52;13.25;;;9.10;;
24547;SDS011;12713;51.624;4.924;2024-01-30T09:18:34;13.38;;;8.93;;
24547;SDS011;12713;51.624;4.924;2024-01-30T09:21:05;15.95;;;9.73;;
24547;SDS011;12713;51.624;4.924;2024-01-30T09:26:59;18.30;;;10.20;;
24547;SDS011;12713;51.624;4.924;2024-01-30T09:29:47;17.00;;;9.57;;
24547;SDS011;12713;51.624;4.924;2024-01-30T09:35:38;17.05;;;9.95;;
24547;SDS011;12713;51.624;4.924;2024-01-30T09:38:13;16.95;;;9.43;;
24547;SDS011;12713;51.624;4.924;2024-01-30T09:44:13;17.60;;;9.63;;
24547;SDS011;12713;51.624;4.924;2024-01-30T09:49:26;16.40;;;9.60;;
24547;SDS011;12713;51.624;4.924;2024-01-30T10:07:38;19.08;;;9.93;;
24547;SDS011;12713;51.624;4.924;2024-01-30T10:10:27;16.98;;;10.07;;
24547;SDS011;12713;51.624;4.924;2024-01-30T10:16:21;15.52;;;9.88;;
24547;SDS011;12713;51.624;4.924;2024-01-30T10:24:55;16.63;;;9.57;;
24547;SDS011;12713;51.624;4.924;2024-01-30T10:31:28;15.23;;;8.48;;
24547;SDS011;12713;51.624;4.924;2024-01-30T10:33:51;13.77;;;8.95;;
24547;SDS011;12713;51.624;4.924;2024-01-30T10:40:19;18.67;;;8.93;;
24547;SDS011;12713;51.624;4.924;2024-01-30T10:46:56;16.33;;;9.40;;
24547;SDS011;12713;51.624;4.924;2024-01-30T10:53:28;15.90;;;9.68;;
24547;SDS011;12713;51.624;4.924;2024-01-30T11:08:12;12.77;;;6.65;;
24547;SDS011;12713;51.624;4.924;2024-01-30T11:16:48;6.90;;;3.65;;
24547;SDS011;12713;51.624;4.924;2024-01-30T11:19:23;7.82;;;2.20;;
24547;SDS011;12713;51.624;4.924;2024-01-30T11:24:40;9.75;;;2.67;;
24547;SDS011;12713;51.624;4.924;2024-01-30T11:27:09;8.65;;;2.10;;
24547;SDS011;12713;51.624;4.924;2024-01-30T11:29:40;6.05;;;2.25;;
24547;SDS011;12713;51.624;4.924;2024-01-30T11:32:30;6.63;;;2.53;;
24547;SDS011;12713;51.624;4.924;2024-01-30T11:38:10;4.22;;;1.98;;
24547;SDS011;12713;51.624;4.924;2024-01-30T11:41:04;4.97;;;1.70;;
24547;SDS011;12713;51.624;4.924;2024-01-30T11:47:10;4.85;;;1.58;;
24547;SDS011;12713;51.624;4.924;2024-01-30T11:49:45;2.78;;;1.40;;
24547;SDS011;12713;51.624;4.924;2024-01-30T11:52:16;5.30;;;1.45;;
24547;SDS011;12713;51.624;4.924;2024-01-30T11:55:14;3.17;;;1.48;;
24547;SDS011;12713;51.624;4.924;2024-01-30T11:58:00;5.28;;;1.75;;
24547;SDS011;12713;51.624;4.924;2024-01-30T12:00:30;3.70;;;1.25;;
24547;SDS011;12713;51.624;4.924;2024-01-30T12:05:54;1.83;;;0.68;;
24547;SDS011;12713;51.624;4.924;2024-01-30T12:14:29;1.35;;;0.60;;
24547;SDS011;12713;51.624;4.924;2024-01-30T12:17:29;2.40;;;0.90;;
24547;SDS011;12713;51.624;4.924;2024-01-30T12:38:10;2.53;;;1.00;;
24547;SDS011;12713;51.624;4.924;2024-01-30T12:40:43;3.22;;;1.00;;
24547;SDS011;12713;51.624;4.924;2024-01-30T12:46:17;3.67;;;1.00;;
24547;SDS011;12713;51.624;4.924;2024-01-30T12:52:05;2.78;;;0.90;;
24547;SDS011;12713;51.624;4.924;2024-01-30T12:54:55;5.28;;;0.98;;
24547;SDS011;12713;51.624;4.924;2024-01-30T13:00:46;5.45;;;1.73;;
24547;SDS011;12713;51.624;4.924;2024-01-30T13:03:39;4.22;;;2.33;;
24547;SDS011;12713;51.624;4.924;2024-01-30T13:09:37;10.75;;;3.50;;
24547;SDS011;12713;51.624;4.924;2024-01-30T13:15:09;9.90;;;3.83;;
24547;SDS011;12713;51.624;4.924;2024-01-30T13:17:44;13.02;;;3.67;;
24547;SDS011;12713;51.624;4.924;2024-01-30T13:29:49;12.95;;;3.63;;
24547;SDS011;12713;51.624;4.924;2024-01-30T13:32:28;6.97;;;4.00;;
24547;SDS011;12713;51.624;4.924;2024-01-30T13:34:54;11.45;;;3.78;;
24547;SDS011;12713;51.624;4.924;2024-01-30T13:40:51;14.13;;;4.47;;
24547;SDS011;12713;51.624;4.924;2024-01-30T13:43:31;9.95;;;4.43;;
24547;SDS011;12713;51.624;4.924;2024-01-30T13:46:09;13.75;;;4.35;;
24547;SDS011;12713;51.624;4.924;2024-01-30T13:49:02;7.53;;;4.10;;
24547;SDS011;12713;51.624;4.924;2024-01-30T13:54:59;11.00;;;4.50;;
24547;SDS011;12713;51.624;4.924;2024-01-30T13:57:48;16.58;;;4.65;;
24547;SDS011;12713;51.624;4.924;2024-01-30T14:00:18;15.70;;;4.68;;
24547;SDS011;12713;51.624;4.924;2024-01-30T14:18:34;8.40;;;4.07;;
24547;SDS011;12713;51.624;4.924;2024-01-30T14:29:52;6.93;;;3.80;;
24547;SDS011;12713;51.624;4.924;2024-01-30T14:35:31;8.05;;;3.65;;
24547;SDS011;12713;51.624;4.924;2024-01-30T14:47:36;6.55;;;3.88;;
24547;SDS011;12713;51.624;4.924;2024-01-30T14:50:16;4.78;;;3.78;;
24547;SDS011;12713;51.624;4.924;2024-01-30T14:52:55;7.40;;;4.13;;
24547;SDS011;12713;51.624;4.924;2024-01-30T14:55:25;9.98;;;4.80;;
24547;SDS011;12713;51.624;4.924;2024-01-30T15:03:52;15.98;;;7.95;;
24547;SDS011;12713;51.624;4.924;2024-01-30T15:06:48;13.10;;;7.57;;
24547;SDS011;12713;51.624;4.924;2024-01-30T15:12:00;11.05;;;5.75;;
24547;SDS011;12713;51.624;4.924;2024-01-30T15:24:03;11.98;;;6.43;;
24547;SDS011;12713;51.624;4.924;2024-01-30T15:26:33;9.60;;;6.25;;
24547;SDS011;12713;51.624;4.924;2024-01-30T15:53:08;8.82;;;5.25;;
24547;SDS011;12713;51.624;4.924;2024-01-30T15:55:37;7.60;;;5.63;;
24547;SDS011;12713;51.624;4.924;2024-01-30T16:04:17;9.48;;;5.70;;
24547;SDS011;12713;51.624;4.924;2024-01-30T16:09:49;13.52;;;7.43;;
24547;SDS011;12713;51.624;4.924;2024-01-30T16:30:47;18.15;;;8.63;;
